Date,TemperatureHighF,TemperatureAvgF,TemperatureLowF,DewpointHighF,DewpointAvgF,DewpointLowF,HumidityHigh,HumidityAvg,HumidityLow,PressureMaxIn,PressureMinIn,WindSpeedMaxMPH,WindSpeedAvgMPH,GustSpeedMaxMPH,PrecipitationSumIn
2013-3-1,34,31,24,28,24,19,84,75,62,30.39,30.27,12,4,18,0.00
2013-3-2,42,30,19,28,22,16,89,75,57,30.41,30.17,6,1,10,0.00
2013-3-3,48,39,31,38,32,26,84,76,65,30.17,29.68,9,2,13,0.00
2013-3-4,45,39,31,38,34,27,92,83,65,30.12,29.65,13,3,19,0.01
2013-3-5,42,34,28,27,20,15,72,55,41,30.43,30.12,21,7,25,0.01
2013-3-6,46,33,23,27,22,17,83,64,42,30.47,30.22,8,2,13,0.00
2013-3-7,65,47,31,33,29,26,81,54,28,30.22,30.05,15,4,17,0.00
2013-3-8,65,53,41,50,41,31,79,65,54,30.12,29.90,15,4,18,0.00
2013-3-9,64,56,41,57,52,37,94,88,75,29.91,29.56,12,7,18,0.09
2013-3-10,40,31,26,36,28,23,95,89,80,30.07,29.66,20,8,24,0.01
2013-3-11,45,31,19,32,20,14,82,67,47,30.08,29.99,12,3,13,0.01
2013-3-12,48,41,33,33,25,16,84,55,29,30.41,30.06,17,4,20,0.00
2013-3-13,53,35,26,27,23,20,84,65,34,30.48,30.38,9,2,13,0.00
2013-3-14,77,64,44,43,40,37,77,43,25,30.19,30.13,7,1,11,0.00
2013-3-15,87,64,43,47,41,36,83,49,17,30.13,29.67,16,1,17,0.00
2013-3-16,60,44,35,45,34,28,81,70,53,30.09,29.78,13,7,19,0.00
2013-3-17,42,36,32,35,31,27,93,81,71,30.09,29.74,13,4,19,0.02
2013-3-18,55,44,36,36,29,20,95,61,27,30.10,29.80,16,4,26,0.02
2013-3-19,50,40,31,34,26,19,79,58,48,30.34,30.10,6,1,10,0.00
2013-3-20,48,38,28,34,22,17,84,56,30,30.47,30.08,7,2,12,0.00
2013-3-21,49,39,33,29,20,14,81,49,29,30.08,29.80,17,7,20,0.00
2013-3-22,46,36,30,34,30,27,92,81,60,30.02,29.93,8,2,14,0.00
2013-3-23,35,33,30,32,30,28,94,89,83,30.06,29.95,14,6,21,0.03
2013-3-24,37,30,24,29,23,18,97,76,52,30.22,30.05,17,7,25,0.01
2013-3-25,34,29,23,20,19,17,80,67,49,30.43,30.22,22,7,23,0.00
2013-3-26,46,32,18,28,22,15,87,67,46,30.46,30.24,7,2,12,0.00
2013-3-27,61,46,34,36,30,25,72,55,36,30.26,30.13,10,3,16,0.00
2013-3-28,67,49,31,40,35,28,88,61,32,30.24,30.11,7,2,12,0.00
2013-3-29,74,59,46,53,46,38,79,64,42,30.22,30.06,10,3,15,0.00
2013-3-30,72,62,52,58,51,-100,93,74,50,30.08,29.92,9,3,14,0.44
2013-3-31,66,55,45,48,39,29,92,61,26,30.10,29.97,10,3,15,0.08